createdAt,value
2022-09-02T00:01:26.662Z,72.40
2022-09-02T00:03:53.866Z,72.40
2022-09-02T00:06:20.785Z,72.40
2022-09-02T00:08:50.742Z,72.60
2022-09-02T00:11:17.564Z,72.70
2022-09-02T00:13:44.446Z,72.30
2022-09-02T00:16:11.506Z,72.40
2022-09-02T00:18:38.907Z,72.50
2022-09-02T00:21:05.728Z,72.70
2022-09-02T00:23:33.347Z,72.80
2022-09-02T00:26:00.092Z,72.80
2022-09-02T00:28:26.984Z,73.00
2022-09-02T00:30:54.250Z,73.00
2022-09-02T00:33:24.164Z,73.10
2022-09-02T00:35:51.080Z,73.30
2022-09-02T00:38:18.004Z,73.20
2022-09-02T00:40:45.005Z,73.30
2022-09-02T00:43:11.887Z,73.60
2022-09-02T00:45:38.852Z,73.50
2022-09-02T00:48:05.763Z,73.80
2022-09-02T00:50:32.889Z,73.90
2022-09-02T00:53:01.875Z,74.00
2022-09-02T00:55:28.747Z,74.10
2022-09-02T00:57:56.966Z,74.30
2022-09-02T01:00:24.196Z,74.30
2022-09-02T01:02:51.375Z,74.30
2022-09-02T01:05:18.324Z,74.50
2022-09-02T01:07:45.263Z,74.50
2022-09-02T01:10:12.416Z,74.80
2022-09-02T01:12:41.774Z,74.80
2022-09-02T01:15:09.294Z,74.70
2022-09-02T01:17:36.209Z,75.00
2022-09-02T01:20:02.970Z,75.20
2022-09-02T01:22:29.915Z,75.20
2022-09-02T01:24:56.898Z,75.20
2022-09-02T01:27:23.824Z,75.40
2022-09-02T01:29:50.678Z,75.50
2022-09-02T01:32:17.605Z,75.50
2022-09-02T01:34:44.514Z,75.40
2022-09-02T01:37:11.372Z,75.60
2022-09-02T01:39:41.327Z,75.40
2022-09-02T01:42:08.241Z,75.60
2022-09-02T01:44:35.152Z,75.30
2022-09-02T01:47:02.117Z,75.40
2022-09-02T01:49:29.146Z,75.40
2022-09-02T01:51:59.507Z,75.30
2022-09-02T01:54:26.803Z,75.50
2022-09-02T01:56:53.727Z,75.50
2022-09-02T01:59:20.964Z,75.60
2022-09-02T02:01:48.171Z,76.30
2022-09-02T02:04:16.075Z,75.60
2022-09-02T02:06:42.933Z,75.70
2022-09-02T02:09:09.902Z,75.80
2022-09-02T02:11:36.620Z,75.80
2022-09-02T02:14:03.704Z,75.70
2022-09-02T02:16:30.598Z,75.60
2022-09-02T02:19:00.466Z,75.90
2022-09-02T02:21:27.340Z,75.80
2022-09-02T02:23:54.349Z,75.80
2022-09-02T02:26:21.123Z,75.70
2022-09-02T02:28:48.139Z,75.90
2022-09-02T02:31:17.302Z,75.90
2022-09-02T02:33:44.219Z,76.10
2022-09-02T02:36:13.592Z,75.80
2022-09-02T02:38:40.345Z,76.00
2022-09-02T02:41:07.171Z,75.90
2022-09-02T02:43:33.945Z,76.00
2022-09-02T02:46:00.750Z,76.20
2022-09-02T02:48:27.624Z,76.00
2022-09-02T02:50:54.635Z,76.20
2022-09-02T02:53:21.589Z,76.30
2022-09-02T02:55:49.720Z,76.30
2022-09-02T02:58:18.366Z,76.80
2022-09-02T03:00:46.293Z,76.20
2022-09-02T03:03:13.362Z,76.40
2022-09-02T03:05:40.210Z,76.30
2022-09-02T03:08:07.229Z,76.20
2022-09-02T03:10:33.984Z,76.20
2022-09-02T03:13:00.798Z,76.30
2022-09-02T03:15:27.638Z,76.20
2022-09-02T03:17:54.492Z,76.40
2022-09-02T03:20:24.362Z,76.60
2022-09-02T03:22:51.433Z,76.70
2022-09-02T03:25:18.653Z,76.90
2022-09-02T03:27:46.070Z,76.90
2022-09-02T03:30:12.965Z,76.80
2022-09-02T03:32:39.902Z,76.80
2022-09-02T03:35:07.744Z,76.90
2022-09-02T03:37:34.804Z,77.20
2022-09-02T03:40:01.620Z,76.90
2022-09-02T03:42:28.470Z,77.10
2022-09-02T03:44:55.341Z,77.30
2022-09-02T03:47:24.534Z,77.20
2022-09-02T03:49:51.815Z,77.50
2022-09-02T03:52:18.812Z,77.40
2022-09-02T03:54:45.911Z,77.20
2022-09-02T03:57:12.732Z,77.20
2022-09-02T03:59:39.634Z,77.10
2022-09-02T04:02:06.647Z,77.20
2022-09-02T04:04:33.823Z,77.00
2022-09-02T04:07:00.755Z,77.10
2022-09-02T04:09:27.684Z,77.30
2022-09-02T04:11:54.668Z,77.10
2022-09-02T04:14:21.488Z,77.40
2022-09-02T04:16:48.501Z,77.30
2022-09-02T04:19:15.266Z,77.20
2022-09-02T04:21:42.171Z,77.70
2022-09-02T04:24:09.466Z,77.40
2022-09-02T04:26:36.379Z,77.80
2022-09-02T04:29:09.424Z,77.80
2022-09-02T04:31:36.244Z,78.10
2022-09-02T04:34:03.289Z,77.90
2022-09-02T04:36:30.870Z,78.60
2022-09-02T04:38:58.006Z,78.50
2022-09-02T04:41:24.924Z,78.70
2022-09-02T04:43:55.079Z,78.70
2022-09-02T04:46:33.859Z,78.70
2022-09-02T04:49:04.750Z,78.90
2022-09-02T04:51:31.765Z,79.00
2022-09-02T04:53:58.714Z,78.70
2022-09-02T04:56:25.681Z,78.70
2022-09-02T04:58:52.800Z,78.90
2022-09-02T05:01:21.104Z,78.90
2022-09-02T05:03:47.965Z,78.90
2022-09-02T05:06:15.009Z,79.10
2022-09-02T05:08:43.425Z,79.10
2022-09-02T05:11:10.302Z,79.20
2022-09-02T05:13:37.079Z,79.10
2022-09-02T05:16:04.000Z,79.00
2022-09-02T05:18:31.249Z,79.20
2022-09-02T05:20:58.226Z,79.30
2022-09-02T05:23:25.140Z,78.90
2022-09-02T05:25:52.011Z,78.70
2022-09-02T05:28:18.883Z,79.00
2022-09-02T05:30:45.945Z,79.00
2022-09-02T05:33:13.214Z,78.90
2022-09-02T05:35:41.566Z,79.40
2022-09-02T05:38:12.871Z,79.40
2022-09-02T05:40:39.794Z,79.50
2022-09-02T05:43:06.574Z,79.80
2022-09-02T05:45:34.359Z,80.00
2022-09-02T05:48:21.047Z,80.10
2022-09-02T05:50:54.883Z,80.30
2022-09-02T05:53:27.017Z,80.30
2022-09-02T05:55:53.987Z,80.50
2022-09-02T05:58:21.240Z,80.80
2022-09-02T06:00:48.119Z,81.30
2022-09-02T06:03:15.062Z,81.20
2022-09-02T06:05:45.190Z,81.50
2022-09-02T06:08:12.264Z,81.50
2022-09-02T06:10:39.054Z,81.20
2022-09-02T06:13:05.982Z,81.20
2022-09-02T06:15:32.896Z,81.20
2022-09-02T06:17:59.920Z,81.70
2022-09-02T06:20:29.115Z,81.30
2022-09-02T06:22:56.059Z,81.30
2022-09-02T06:25:23.095Z,81.00
2022-09-02T06:27:49.958Z,81.50
2022-09-02T06:30:16.793Z,81.90
2022-09-02T06:32:43.735Z,81.60
2022-09-02T06:35:17.231Z,81.40
2022-09-02T06:37:45.217Z,81.30
2022-09-02T06:40:12.631Z,81.10
2022-09-02T06:42:39.481Z,82.10
2022-09-02T06:45:06.306Z,81.30
2022-09-02T06:47:33.133Z,82.00
2022-09-02T06:50:00.067Z,81.80
2022-09-02T06:52:27.079Z,81.20
2022-09-02T06:54:55.032Z,81.50
2022-09-02T06:57:21.787Z,81.70
2022-09-02T07:05:31.065Z,81.50
2022-09-02T07:29:22.385Z,81.00
2022-09-02T07:31:49.240Z,80.70
2022-09-02T07:34:16.403Z,80.70
2022-09-02T07:43:12.137Z,81.30
2022-09-02T07:59:39.777Z,80.30
2022-09-02T08:05:06.929Z,80.50
2022-09-02T08:07:33.723Z,79.60
2022-09-02T08:10:01.337Z,80.20
2022-09-02T08:15:11.153Z,79.80
2022-09-02T08:17:41.300Z,79.30
2022-09-02T08:20:25.511Z,79.40
2022-09-02T08:23:01.000Z,78.90
2022-09-02T08:25:38.755Z,78.90
2022-09-02T08:28:05.709Z,79.50
2022-09-02T08:30:32.624Z,79.10
2022-09-02T08:44:38.296Z,78.00
2022-09-02T08:52:51.375Z,77.70
2022-09-02T08:58:00.283Z,77.90
2022-09-02T09:03:10.763Z,75.70
2022-09-02T09:08:21.539Z,76.30
2022-09-02T09:13:40.764Z,75.80
2022-09-02T09:16:18.385Z,76.60
2022-09-02T09:18:46.119Z,76.60
2022-09-02T09:21:14.705Z,77.20
2022-09-02T09:23:42.800Z,75.50
2022-09-02T09:26:21.952Z,75.10
2022-09-02T09:28:49.370Z,74.00
2022-09-02T09:31:21.083Z,74.70
2022-09-02T09:48:47.675Z,74.20
2022-09-02T09:51:16.153Z,72.30
2022-09-02T09:53:43.395Z,72.70
2022-09-02T10:14:11.725Z,69.90
2022-09-02T10:16:38.395Z,66.00
2022-09-02T10:19:04.987Z,67.30
2022-09-02T10:21:31.558Z,65.30
2022-09-02T10:23:58.107Z,63.90
2022-09-02T10:29:01.963Z,66.00
2022-09-02T10:31:31.036Z,65.00
2022-09-02T10:33:57.761Z,64.10
2022-09-02T10:36:27.693Z,63.80
2022-09-02T10:38:54.277Z,64.00
2022-09-02T10:41:20.868Z,64.00
2022-09-02T10:43:47.554Z,62.00
2022-09-02T10:46:14.176Z,62.00
2022-09-02T10:48:40.745Z,61.30
2022-09-02T10:51:07.394Z,60.50
2022-09-02T10:53:34.101Z,60.00
2022-09-02T10:56:00.776Z,59.00
2022-09-02T10:58:27.627Z,57.50
2022-09-02T11:00:54.300Z,58.20
2022-09-02T11:03:21.122Z,58.70
2022-09-02T11:05:48.155Z,57.90
2022-09-02T11:08:14.723Z,56.80
2022-09-02T11:10:41.291Z,57.00
2022-09-02T11:13:08.010Z,57.70
2022-09-02T11:18:21.161Z,59.00
2022-09-02T11:20:48.746Z,59.20
2022-09-02T11:23:15.320Z,59.40
2022-09-02T11:25:41.915Z,60.20
2022-09-02T11:28:08.612Z,58.70
2022-09-02T11:30:36.520Z,58.50
2022-09-02T11:33:03.084Z,58.20
2022-09-02T11:35:30.166Z,57.50
2022-09-02T11:37:56.858Z,57.10
2022-09-02T11:40:34.168Z,56.20
2022-09-02T11:43:06.384Z,56.30
2022-09-02T11:45:37.306Z,55.40
2022-09-02T11:48:11.090Z,56.50
2022-09-02T11:50:39.628Z,56.70
2022-09-02T11:53:06.378Z,56.60
2022-09-02T11:55:32.977Z,56.30
2022-09-02T11:57:59.583Z,56.50
2022-09-02T12:00:27.049Z,58.50
2022-09-02T12:02:54.216Z,57.40
2022-09-02T12:05:20.897Z,57.00
2022-09-02T12:07:47.797Z,56.20
2022-09-02T12:10:14.355Z,55.00
2022-09-02T12:12:49.959Z,55.20
2022-09-02T12:15:18.002Z,55.60
2022-09-02T12:17:46.866Z,55.60
2022-09-02T12:20:13.645Z,56.80
2022-09-02T12:22:40.313Z,55.80
2022-09-02T12:25:06.960Z,55.90
2022-09-02T12:27:35.699Z,55.80
2022-09-02T12:30:02.437Z,56.00
2022-09-02T12:32:29.086Z,56.50
2022-09-02T12:34:55.893Z,58.00
2022-09-02T12:37:23.617Z,56.50
2022-09-02T12:39:50.202Z,56.90
2022-09-02T12:42:17.242Z,57.50
2022-09-02T12:44:45.420Z,57.40
2022-09-02T12:47:11.995Z,57.50
2022-09-02T12:49:38.982Z,58.00
2022-09-02T12:52:06.744Z,58.80
2022-09-02T12:54:33.367Z,58.90
2022-09-02T12:57:00.025Z,57.70
2022-09-02T12:59:26.606Z,57.50
2022-09-02T13:01:53.266Z,57.80
2022-09-02T13:04:20.022Z,57.90
2022-09-02T13:06:46.612Z,57.00
2022-09-02T13:09:13.247Z,56.60
2022-09-02T13:11:39.838Z,57.00
2022-09-02T13:14:06.525Z,57.30
2022-09-02T13:16:33.101Z,57.60
2022-09-02T13:18:59.770Z,56.70
2022-09-02T13:21:26.374Z,57.20
2022-09-02T13:23:53.316Z,57.00
2022-09-02T13:26:45.576Z,58.50
2022-09-02T13:29:06.697Z,58.30
2022-09-02T13:31:33.353Z,57.80
2022-09-02T13:33:59.922Z,57.70
2022-09-02T13:36:26.480Z,57.20
2022-09-02T13:38:53.111Z,56.20
2022-09-02T13:41:19.769Z,56.20
2022-09-02T13:43:46.800Z,57.20
2022-09-02T13:46:13.563Z,57.60
2022-09-02T13:48:40.224Z,57.00
2022-09-02T13:51:06.880Z,57.50
2022-09-02T13:56:20.054Z,57.00
2022-09-02T13:58:46.745Z,57.20
2022-09-02T14:01:13.531Z,57.20
2022-09-02T14:03:40.594Z,57.10
2022-09-02T14:06:08.274Z,57.50
2022-09-02T14:08:34.844Z,56.20
2022-09-02T14:11:07.366Z,56.60
2022-09-02T14:13:34.991Z,56.00
2022-09-02T14:16:03.694Z,56.70
2022-09-02T14:18:30.786Z,55.70
2022-09-02T14:20:57.684Z,56.00
2022-09-02T14:23:24.355Z,55.90
2022-09-02T14:25:50.890Z,54.80
2022-09-02T14:28:17.566Z,55.60
2022-09-02T14:30:44.283Z,55.00
2022-09-02T14:33:10.865Z,54.20
2022-09-02T14:35:37.513Z,54.30
2022-09-02T14:38:04.079Z,54.90
2022-09-02T14:40:30.679Z,54.50
2022-09-02T14:42:58.065Z,54.00
2022-09-02T14:45:24.730Z,54.90
2022-09-02T14:47:51.465Z,54.50
2022-09-02T14:50:18.699Z,55.00
2022-09-02T14:52:45.260Z,54.90
2022-09-02T14:55:11.842Z,54.60
2022-09-02T14:57:39.039Z,54.80
2022-09-02T15:00:08.215Z,54.40
2022-09-02T15:02:34.871Z,54.50
2022-09-02T15:05:01.559Z,54.40
2022-09-02T15:07:28.163Z,55.00
2022-09-02T15:09:54.735Z,55.20
2022-09-02T15:12:24.560Z,54.60
2022-09-02T15:14:51.214Z,54.00
2022-09-02T15:17:17.797Z,53.30
2022-09-02T15:19:44.485Z,54.00
2022-09-02T15:22:11.170Z,54.20
2022-09-02T15:24:38.287Z,52.90
2022-09-02T15:27:04.994Z,54.00
2022-09-02T15:29:31.996Z,53.20
2022-09-02T15:31:59.915Z,52.90
2022-09-02T15:34:26.600Z,53.50
2022-09-02T15:36:55.226Z,53.60
2022-09-02T15:39:22.927Z,53.30
2022-09-02T15:41:50.201Z,52.80
2022-09-02T15:44:16.903Z,52.40
2022-09-02T15:46:44.776Z,52.60
2022-09-02T15:49:11.352Z,52.10
2022-09-02T15:51:40.905Z,52.90
2022-09-02T15:54:07.585Z,53.00
2022-09-02T15:56:34.275Z,53.50
2022-09-02T15:59:00.831Z,52.30
2022-09-02T16:01:27.483Z,52.30
2022-09-02T16:03:54.124Z,53.10
2022-09-02T16:06:20.695Z,52.70
2022-09-02T16:08:47.365Z,52.70
2022-09-02T16:11:13.905Z,53.60
2022-09-02T16:13:40.827Z,53.90
2022-09-02T16:16:07.398Z,54.00
2022-09-02T16:18:34.015Z,54.60
2022-09-02T16:21:00.619Z,54.70
2022-09-02T16:23:27.198Z,55.00
2022-09-02T16:25:53.751Z,55.00
2022-09-02T16:28:20.293Z,55.80
2022-09-02T16:30:46.988Z,55.40
2022-09-02T16:33:13.872Z,55.30
2022-09-02T16:35:40.501Z,54.80
2022-09-02T16:38:07.076Z,54.80
2022-09-02T16:40:33.681Z,55.00
2022-09-02T16:43:00.692Z,55.00
2022-09-02T16:45:27.244Z,55.40
2022-09-02T16:47:53.850Z,55.20
2022-09-02T16:50:20.419Z,55.30
2022-09-02T16:52:47.219Z,55.40
2022-09-02T16:55:18.548Z,55.90
2022-09-02T16:57:45.445Z,56.00
2022-09-02T17:00:12.540Z,55.70
2022-09-02T17:02:39.195Z,56.00
2022-09-02T17:05:07.885Z,56.10
2022-09-02T17:07:34.453Z,56.30
2022-09-02T17:10:01.023Z,56.40
2022-09-02T17:12:27.573Z,56.60
2022-09-02T17:14:54.138Z,57.50
2022-09-02T17:17:20.687Z,56.70
2022-09-02T17:19:47.410Z,57.00
2022-09-02T17:22:13.976Z,56.80
2022-09-02T17:24:41.898Z,56.70
2022-09-02T17:27:08.886Z,56.80
2022-09-02T17:29:50.913Z,57.30
2022-09-02T17:32:17.614Z,57.50
2022-09-02T17:34:44.211Z,57.80
2022-09-02T17:37:10.854Z,57.60
2022-09-02T17:39:37.552Z,58.00
2022-09-02T17:42:05.112Z,57.90
2022-09-02T17:44:36.230Z,58.20
2022-09-02T17:47:04.498Z,58.30
2022-09-02T17:49:31.081Z,58.50
2022-09-02T17:51:59.873Z,58.50
2022-09-02T17:54:27.164Z,58.70
2022-09-02T17:56:54.218Z,58.80
2022-09-02T17:59:20.887Z,58.80
2022-09-02T18:01:47.435Z,58.90
2022-09-02T18:04:14.266Z,58.80
2022-09-02T18:06:41.422Z,59.00
2022-09-02T18:09:10.940Z,58.90
2022-09-02T18:11:37.837Z,59.30
2022-09-02T18:14:04.404Z,59.50
2022-09-02T18:16:32.125Z,59.60
2022-09-02T18:18:58.834Z,59.60
2022-09-02T18:21:25.568Z,59.90
2022-09-02T18:23:52.125Z,60.00
2022-09-02T18:26:18.908Z,60.10
2022-09-02T18:28:45.491Z,60.40
2022-09-02T18:31:12.264Z,60.50
2022-09-02T18:33:38.895Z,60.50
2022-09-02T18:36:05.501Z,60.70
2022-09-02T18:38:38.518Z,60.80
2022-09-02T18:41:05.140Z,61.00
2022-09-02T18:43:31.852Z,61.30
2022-09-02T18:45:58.693Z,61.50
2022-09-02T18:48:25.500Z,61.30
2022-09-02T18:50:53.561Z,61.80
2022-09-02T18:53:20.103Z,61.50
2022-09-02T18:55:46.703Z,61.80
2022-09-02T18:58:13.559Z,61.80
2022-09-02T19:00:40.354Z,61.80
2022-09-02T19:03:07.165Z,61.90
2022-09-02T19:05:35.346Z,62.00
2022-09-02T19:08:21.548Z,62.40
2022-09-02T19:10:48.422Z,62.40
2022-09-02T19:13:15.190Z,62.40
2022-09-02T19:15:42.190Z,62.70
2022-09-02T19:18:10.623Z,62.80
2022-09-02T19:20:37.585Z,62.90
2022-09-02T19:23:04.367Z,63.20
2022-09-02T19:25:32.171Z,63.40
2022-09-02T19:28:02.273Z,63.60
2022-09-02T19:30:28.936Z,63.60
2022-09-02T19:32:55.701Z,63.50
2022-09-02T19:35:22.928Z,63.60
2022-09-02T19:37:51.424Z,63.70
2022-09-02T19:40:18.423Z,63.70
2022-09-02T19:42:45.095Z,63.90
2022-09-02T19:45:16.184Z,64.00
2022-09-02T19:48:06.680Z,63.90
2022-09-02T19:50:29.921Z,64.10
2022-09-02T19:52:56.740Z,64.10
2022-09-02T19:55:23.922Z,64.20
2022-09-02T19:57:51.640Z,64.30
2022-09-02T20:00:18.193Z,64.30
2022-09-02T20:02:44.964Z,64.40
2022-09-02T20:05:12.101Z,64.40
2022-09-02T20:07:38.738Z,64.50
2022-09-02T20:10:05.390Z,64.80
2022-09-02T20:12:32.853Z,64.80
2022-09-02T20:15:00.520Z,64.90
2022-09-02T20:17:27.451Z,64.80
2022-09-02T20:19:54.355Z,64.90
2022-09-02T20:22:21.598Z,65.10
2022-09-02T20:24:48.173Z,65.10
2022-09-02T20:27:14.837Z,65.10
2022-09-02T20:29:41.418Z,65.20
2022-09-02T20:32:08.008Z,65.30
2022-09-02T20:34:34.595Z,65.40
2022-09-02T20:37:01.174Z,65.40
2022-09-02T20:39:27.799Z,65.30
2022-09-02T20:41:55.126Z,65.50
2022-09-02T20:44:23.602Z,65.80
2022-09-02T20:46:53.626Z,65.90
2022-09-02T20:49:20.317Z,65.90
2022-09-02T20:51:46.884Z,65.80
2022-09-02T20:54:13.899Z,66.00
2022-09-02T20:56:40.448Z,66.10
2022-09-02T20:59:10.507Z,66.30
2022-09-02T21:01:37.154Z,66.40
2022-09-02T21:04:03.770Z,66.70
2022-09-02T21:06:30.373Z,66.80
2022-09-02T21:08:57.046Z,67.00
2022-09-02T21:11:24.107Z,67.70
2022-09-02T21:13:50.644Z,67.20
2022-09-02T21:16:19.826Z,67.10
2022-09-02T21:18:47.445Z,67.30
2022-09-02T21:21:14.003Z,67.30
2022-09-02T21:23:40.624Z,67.30
2022-09-02T21:26:07.616Z,67.50
2022-09-02T21:28:34.592Z,67.40
2022-09-02T21:31:01.382Z,67.60
2022-09-02T21:33:28.075Z,67.70
2022-09-02T21:35:54.663Z,67.80
2022-09-02T21:38:21.240Z,67.90
2022-09-02T21:40:47.804Z,68.10
2022-09-02T21:43:14.429Z,68.00
2022-09-02T21:45:40.994Z,68.10
2022-09-02T21:48:07.571Z,68.20
2022-09-02T21:50:34.125Z,68.10
2022-09-02T21:53:00.767Z,68.30
2022-09-02T21:55:27.358Z,68.40
2022-09-02T21:57:54.680Z,68.30
2022-09-02T22:00:22.118Z,68.40
2022-09-02T22:02:50.012Z,68.50
2022-09-02T22:05:16.614Z,68.50
2022-09-02T22:07:44.288Z,68.60
2022-09-02T22:10:11.117Z,68.70
2022-09-02T22:12:39.638Z,68.70
2022-09-02T22:15:07.694Z,68.80
2022-09-02T22:17:35.214Z,68.90
2022-09-02T22:20:02.841Z,69.00
2022-09-02T22:22:29.379Z,69.00
2022-09-02T22:24:57.424Z,69.20
2022-09-02T22:27:24.179Z,69.30
2022-09-02T22:29:50.801Z,69.40
2022-09-02T22:32:18.006Z,69.30
2022-09-02T22:34:44.595Z,69.40
2022-09-02T22:37:12.001Z,69.50
2022-09-02T22:39:38.639Z,69.60
2022-09-02T22:42:05.221Z,69.60
2022-09-02T22:44:52.300Z,69.60
2022-09-02T22:47:37.507Z,69.80
2022-09-02T22:50:23.093Z,69.90
2022-09-02T22:52:54.384Z,69.80
2022-09-02T22:55:20.948Z,69.80
2022-09-02T22:57:47.750Z,69.70
2022-09-02T23:00:14.568Z,69.70
2022-09-02T23:02:41.413Z,69.40
2022-09-02T23:05:08.006Z,69.60
2022-09-02T23:07:34.585Z,69.60
2022-09-02T23:10:01.251Z,69.70
2022-09-02T23:12:28.660Z,69.50
2022-09-02T23:14:59.798Z,69.80
2022-09-02T23:17:27.377Z,69.70
2022-09-02T23:19:56.631Z,69.70
2022-09-02T23:22:24.999Z,69.90
2022-09-02T23:24:51.891Z,70.00
2022-09-02T23:27:21.046Z,70.00
2022-09-02T23:29:47.822Z,70.00
2022-09-02T23:32:20.774Z,70.10
2022-09-02T23:34:48.583Z,70.10
2022-09-02T23:37:15.131Z,70.20
2022-09-02T23:39:43.937Z,70.20
2022-09-02T23:42:10.825Z,70.40
2022-09-02T23:44:38.054Z,70.50
2022-09-02T23:47:04.646Z,70.60
2022-09-02T23:49:31.204Z,70.50
2022-09-02T23:51:57.911Z,70.60
2022-09-02T23:54:24.465Z,70.80
2022-09-02T23:56:51.118Z,70.90
2022-09-02T23:59:18.035Z,71.00
